sensor_id;sensor_type;location;lat;lon;timestamp;P1;durP1;ratioP1;P2;durP2;ratioP2
74559;SDS011;63032;54.340;10.138;2022-10-10T05:54:27;2.13;;;1.50;;
74559;SDS011;63032;54.340;10.138;2022-10-10T05:56:53;1.52;;;1.17;;
74559;SDS011;63032;54.340;10.138;2022-10-10T05:59:19;4.07;;;1.10;;
74559;SDS011;63032;54.340;10.138;2022-10-10T06:01:44;1.85;;;1.20;;
74559;SDS011;63032;54.340;10.138;2022-10-10T06:04:10;7.85;;;1.52;;
74559;SDS011;63032;54.340;10.138;2022-10-10T06:06:36;6.95;;;1.30;;
74559;SDS011;63032;54.340;10.138;2022-10-10T06:09:02;3.28;;;1.33;;
74559;SDS011;63032;54.340;10.138;2022-10-10T06:11:28;1.50;;;1.10;;
74559;SDS011;63032;54.340;10.138;2022-10-10T06:13:53;5.05;;;1.30;;
74559;SDS011;63032;54.340;10.138;2022-10-10T06:16:23;2.13;;;1.35;;
74559;SDS011;63032;54.340;10.138;2022-10-10T06:18:50;2.70;;;1.15;;
74559;SDS011;63032;54.340;10.138;2022-10-10T06:21:16;4.10;;;1.10;;
74559;SDS011;63032;54.340;10.138;2022-10-10T06:23:42;2.22;;;1.33;;
74559;SDS011;63032;54.340;10.138;2022-10-10T06:26:09;5.10;;;1.10;;
74559;SDS011;63032;54.340;10.138;2022-10-10T06:28:35;1.95;;;1.00;;
74559;SDS011;63032;54.340;10.138;2022-10-10T06:31:01;1.40;;;1.10;;
74559;SDS011;63032;54.340;10.138;2022-10-10T06:33:29;3.55;;;1.13;;
74559;SDS011;63032;54.340;10.138;2022-10-10T06:35:55;2.50;;;1.23;;
74559;SDS011;63032;54.340;10.138;2022-10-10T06:38:20;3.17;;;1.23;;
74559;SDS011;63032;54.340;10.138;2022-10-10T06:40:46;1.63;;;0.88;;
74559;SDS011;63032;54.340;10.138;2022-10-10T06:43:13;2.28;;;1.23;;
74559;SDS011;63032;54.340;10.138;2022-10-10T06:45:41;1.83;;;1.20;;
74559;SDS011;63032;54.340;10.138;2022-10-10T06:48:08;1.02;;;0.90;;
74559;SDS011;63032;54.340;10.138;2022-10-10T06:50:35;2.33;;;1.10;;
74559;SDS011;63032;54.340;10.138;2022-10-10T06:53:01;1.77;;;1.00;;
74559;SDS011;63032;54.340;10.138;2022-10-10T06:55:27;3.40;;;1.08;;
74559;SDS011;63032;54.340;10.138;2022-10-10T06:57:53;5.50;;;1.40;;
74559;SDS011;63032;54.340;10.138;2022-10-10T07:00:19;1.88;;;1.25;;
74559;SDS011;63032;54.340;10.138;2022-10-10T07:02:45;1.33;;;1.05;;
74559;SDS011;63032;54.340;10.138;2022-10-10T07:05:11;4.18;;;1.10;;
74559;SDS011;63032;54.340;10.138;2022-10-10T07:07:41;1.77;;;1.20;;
74559;SDS011;63032;54.340;10.138;2022-10-10T07:10:08;5.85;;;1.05;;
74559;SDS011;63032;54.340;10.138;2022-10-10T07:12:36;2.13;;;1.23;;
74559;SDS011;63032;54.340;10.138;2022-10-10T07:15:03;3.80;;;1.00;;
74559;SDS011;63032;54.340;10.138;2022-10-10T07:17:30;4.82;;;1.70;;
74559;SDS011;63032;54.340;10.138;2022-10-10T07:19:55;2.63;;;1.15;;
74559;SDS011;63032;54.340;10.138;2022-10-10T07:22:21;1.58;;;1.10;;
74559;SDS011;63032;54.340;10.138;2022-10-10T07:24:47;1.70;;;1.02;;
74559;SDS011;63032;54.340;10.138;2022-10-10T07:27:13;2.17;;;0.93;;
74559;SDS011;63032;54.340;10.138;2022-10-10T07:29:38;1.10;;;1.00;;
74559;SDS011;63032;54.340;10.138;2022-10-10T07:32:05;2.90;;;1.20;;
74559;SDS011;63032;54.340;10.138;2022-10-10T07:34:31;1.33;;;1.13;;
74559;SDS011;63032;54.340;10.138;2022-10-10T07:36:57;1.92;;;1.23;;
74559;SDS011;63032;54.340;10.138;2022-10-10T07:39:23;2.47;;;1.05;;
74559;SDS011;63032;54.340;10.138;2022-10-10T07:41:50;1.42;;;1.00;;
74559;SDS011;63032;54.340;10.138;2022-10-10T07:44:16;2.17;;;1.02;;
74559;SDS011;63032;54.340;10.138;2022-10-10T07:46:42;2.95;;;1.00;;
74559;SDS011;63032;54.340;10.138;2022-10-10T07:49:09;1.08;;;0.90;;
74559;SDS011;63032;54.340;10.138;2022-10-10T07:51:38;2.13;;;1.30;;
74559;SDS011;63032;54.340;10.138;2022-10-10T07:54:04;2.65;;;1.10;;
74559;SDS011;63032;54.340;10.138;2022-10-10T07:56:30;1.80;;;0.88;;
74559;SDS011;63032;54.340;10.138;2022-10-10T07:58:56;1.08;;;0.90;;
74559;SDS011;63032;54.340;10.138;2022-10-10T08:01:21;2.00;;;1.10;;
74559;SDS011;63032;54.340;10.138;2022-10-10T08:03:47;1.48;;;1.02;;
74559;SDS011;63032;54.340;10.138;2022-10-10T08:06:14;2.90;;;1.00;;
74559;SDS011;63032;54.340;10.138;2022-10-10T08:08:41;1.40;;;0.90;;
74559;SDS011;63032;54.340;10.138;2022-10-10T08:11:08;1.77;;;1.00;;
74559;SDS011;63032;54.340;10.138;2022-10-10T08:13:35;1.05;;;0.75;;
74559;SDS011;63032;54.340;10.138;2022-10-10T08:16:02;1.63;;;1.00;;
74559;SDS011;63032;54.340;10.138;2022-10-10T08:18:28;3.17;;;0.90;;
74559;SDS011;63032;54.340;10.138;2022-10-10T08:21:01;1.77;;;0.98;;
74559;SDS011;63032;54.340;10.138;2022-10-10T08:23:31;2.05;;;0.85;;
74559;SDS011;63032;54.340;10.138;2022-10-10T08:25:57;2.00;;;1.05;;
74559;SDS011;63032;54.340;10.138;2022-10-10T08:28:24;1.20;;;1.10;;
74559;SDS011;63032;54.340;10.138;2022-10-10T08:30:50;1.50;;;0.98;;
74559;SDS011;63032;54.340;10.138;2022-10-10T08:33:15;1.52;;;0.95;;
74559;SDS011;63032;54.340;10.138;2022-10-10T08:35:41;4.68;;;0.95;;
74559;SDS011;63032;54.340;10.138;2022-10-10T08:38:07;1.08;;;0.90;;
74559;SDS011;63032;54.340;10.138;2022-10-10T08:40:33;2.03;;;1.23;;
74559;SDS011;63032;54.340;10.138;2022-10-10T08:43:10;1.55;;;0.98;;
74559;SDS011;63032;54.340;10.138;2022-10-10T08:45:47;1.02;;;0.93;;
74559;SDS011;63032;54.340;10.138;2022-10-10T08:48:15;1.15;;;0.80;;
74559;SDS011;63032;54.340;10.138;2022-10-10T08:50:48;0.95;;;0.85;;
74559;SDS011;63032;54.340;10.138;2022-10-10T08:53:38;1.55;;;0.70;;
74559;SDS011;63032;54.340;10.138;2022-10-10T08:56:09;2.25;;;0.70;;
74559;SDS011;63032;54.340;10.138;2022-10-10T08:58:43;0.90;;;0.65;;
74559;SDS011;63032;54.340;10.138;2022-10-10T09:01:14;1.98;;;1.02;;
74559;SDS011;63032;54.340;10.138;2022-10-10T09:03:53;0.88;;;0.82;;
74559;SDS011;63032;54.340;10.138;2022-10-10T09:14:25;2.65;;;0.95;;
74559;SDS011;63032;54.340;10.138;2022-10-10T09:17:17;2.15;;;0.82;;
74559;SDS011;63032;54.340;10.138;2022-10-10T09:22:45;1.02;;;0.80;;
74559;SDS011;63032;54.340;10.138;2022-10-10T09:25:23;0.75;;;0.70;;
74559;SDS011;63032;54.340;10.138;2022-10-10T09:31:15;1.55;;;0.90;;
74559;SDS011;63032;54.340;10.138;2022-10-10T09:33:54;1.27;;;0.90;;
74559;SDS011;63032;54.340;10.138;2022-10-10T09:36:26;1.83;;;0.90;;
74559;SDS011;63032;54.340;10.138;2022-10-10T09:38:59;1.58;;;0.75;;
74559;SDS011;63032;54.340;10.138;2022-10-10T09:41:42;1.13;;;0.70;;
74559;SDS011;63032;54.340;10.138;2022-10-10T09:44:22;1.67;;;1.00;;
74559;SDS011;63032;54.340;10.138;2022-10-10T09:46:48;1.02;;;0.70;;
74559;SDS011;63032;54.340;10.138;2022-10-10T09:49:14;0.88;;;0.80;;
74559;SDS011;63032;54.340;10.138;2022-10-10T09:51:42;0.77;;;0.70;;
74559;SDS011;63032;54.340;10.138;2022-10-10T09:54:08;1.50;;;1.10;;
74559;SDS011;63032;54.340;10.138;2022-10-10T09:59:39;1.13;;;0.75;;
74559;SDS011;63032;54.340;10.138;2022-10-10T10:04:43;2.17;;;0.73;;
74559;SDS011;63032;54.340;10.138;2022-10-10T10:09:58;1.15;;;0.80;;
74559;SDS011;63032;54.340;10.138;2022-10-10T10:12:48;0.93;;;0.73;;
74559;SDS011;63032;54.340;10.138;2022-10-10T10:15:48;1.15;;;1.05;;
74559;SDS011;63032;54.340;10.138;2022-10-10T10:18:17;1.27;;;0.93;;
74559;SDS011;63032;54.340;10.138;2022-10-10T10:21:15;1.65;;;1.00;;
74559;SDS011;63032;54.340;10.138;2022-10-10T10:23:53;1.53;;;0.80;;
74559;SDS011;63032;54.340;10.138;2022-10-10T10:43:16;0.93;;;0.63;;
74559;SDS011;63032;54.340;10.138;2022-10-10T10:48:28;0.93;;;0.65;;
74559;SDS011;63032;54.340;10.138;2022-10-10T10:56:15;1.02;;;0.80;;
74559;SDS011;63032;54.340;10.138;2022-10-10T11:05:32;0.70;;;0.70;;
74559;SDS011;63032;54.340;10.138;2022-10-10T11:13:21;1.10;;;0.85;;
74559;SDS011;63032;54.340;10.138;2022-10-10T11:16:07;1.13;;;0.75;;
74559;SDS011;63032;54.340;10.138;2022-10-10T11:18:38;1.50;;;0.70;;
74559;SDS011;63032;54.340;10.138;2022-10-10T11:21:16;1.10;;;0.95;;
74559;SDS011;63032;54.340;10.138;2022-10-10T11:26:26;0.70;;;0.70;;
74559;SDS011;63032;54.340;10.138;2022-10-10T11:31:46;0.68;;;0.63;;
74559;SDS011;63032;54.340;10.138;2022-10-10T11:34:27;0.68;;;0.50;;
74559;SDS011;63032;54.340;10.138;2022-10-10T11:36:55;0.70;;;0.60;;
74559;SDS011;63032;54.340;10.138;2022-10-10T11:39:43;0.98;;;0.70;;
74559;SDS011;63032;54.340;10.138;2022-10-10T11:44:59;0.98;;;0.60;;
74559;SDS011;63032;54.340;10.138;2022-10-10T11:55:27;0.65;;;0.57;;
74559;SDS011;63032;54.340;10.138;2022-10-10T11:58:29;1.08;;;0.80;;
74559;SDS011;63032;54.340;10.138;2022-10-10T12:01:45;0.77;;;0.77;;
74559;SDS011;63032;54.340;10.138;2022-10-10T12:03:55;0.60;;;0.60;;
74559;SDS011;63032;54.340;10.138;2022-10-10T12:06:45;0.88;;;0.88;;
74559;SDS011;63032;54.340;10.138;2022-10-10T12:09:18;0.75;;;0.68;;
74559;SDS011;63032;54.340;10.138;2022-10-10T12:14:30;0.60;;;0.60;;
74559;SDS011;63032;54.340;10.138;2022-10-10T12:16:57;0.52;;;0.52;;
74559;SDS011;63032;54.340;10.138;2022-10-10T12:19:24;0.57;;;0.57;;
74559;SDS011;63032;54.340;10.138;2022-10-10T12:21:56;0.50;;;0.50;;
74559;SDS011;63032;54.340;10.138;2022-10-10T12:24:25;0.80;;;0.68;;
74559;SDS011;63032;54.340;10.138;2022-10-10T12:37:23;0.93;;;0.60;;
74559;SDS011;63032;54.340;10.138;2022-10-10T12:48:04;0.85;;;0.70;;
74559;SDS011;63032;54.340;10.138;2022-10-10T12:50:42;1.52;;;0.85;;
74559;SDS011;63032;54.340;10.138;2022-10-10T12:53:23;1.30;;;0.85;;
74559;SDS011;63032;54.340;10.138;2022-10-10T12:55:58;4.93;;;1.05;;
74559;SDS011;63032;54.340;10.138;2022-10-10T13:01:01;2.33;;;1.00;;
74559;SDS011;63032;54.340;10.138;2022-10-10T13:03:51;3.38;;;1.30;;
74559;SDS011;63032;54.340;10.138;2022-10-10T13:08:52;1.83;;;1.25;;
74559;SDS011;63032;54.340;10.138;2022-10-10T13:11:19;5.35;;;1.60;;
74559;SDS011;63032;54.340;10.138;2022-10-10T13:13:54;1.55;;;0.90;;
74559;SDS011;63032;54.340;10.138;2022-10-10T13:16:24;1.70;;;1.15;;
74559;SDS011;63032;54.340;10.138;2022-10-10T13:18:56;1.92;;;1.10;;
74559;SDS011;63032;54.340;10.138;2022-10-10T13:21:33;1.65;;;1.10;;
74559;SDS011;63032;54.340;10.138;2022-10-10T13:24:00;4.45;;;1.60;;
74559;SDS011;63032;54.340;10.138;2022-10-10T13:28:54;4.38;;;2.50;;
74559;SDS011;63032;54.340;10.138;2022-10-10T13:31:24;2.70;;;2.08;;
74559;SDS011;63032;54.340;10.138;2022-10-10T13:33:55;5.40;;;1.90;;
74559;SDS011;63032;54.340;10.138;2022-10-10T13:36:23;5.47;;;2.15;;
74559;SDS011;63032;54.340;10.138;2022-10-10T13:38:52;6.35;;;2.75;;
74559;SDS011;63032;54.340;10.138;2022-10-10T13:41:18;5.47;;;2.67;;
74559;SDS011;63032;54.340;10.138;2022-10-10T13:43:45;6.03;;;2.30;;
74559;SDS011;63032;54.340;10.138;2022-10-10T13:46:44;8.50;;;2.45;;
74559;SDS011;63032;54.340;10.138;2022-10-10T13:49:11;4.55;;;2.28;;
74559;SDS011;63032;54.340;10.138;2022-10-10T13:51:48;9.18;;;2.90;;
74559;SDS011;63032;54.340;10.138;2022-10-10T13:54:42;5.20;;;2.78;;
74559;SDS011;63032;54.340;10.138;2022-10-10T13:57:30;5.65;;;2.92;;
74559;SDS011;63032;54.340;10.138;2022-10-10T14:00:04;5.05;;;2.85;;
74559;SDS011;63032;54.340;10.138;2022-10-10T14:02:34;4.70;;;3.55;;
74559;SDS011;63032;54.340;10.138;2022-10-10T14:05:07;3.85;;;2.42;;
74559;SDS011;63032;54.340;10.138;2022-10-10T14:07:39;5.45;;;2.80;;
74559;SDS011;63032;54.340;10.138;2022-10-10T14:10:12;6.72;;;3.10;;
74559;SDS011;63032;54.340;10.138;2022-10-10T14:12:41;4.75;;;2.90;;
74559;SDS011;63032;54.340;10.138;2022-10-10T14:18:11;5.10;;;3.45;;
74559;SDS011;63032;54.340;10.138;2022-10-10T14:20:45;5.35;;;3.47;;
74559;SDS011;63032;54.340;10.138;2022-10-10T14:23:12;7.50;;;3.80;;
74559;SDS011;63032;54.340;10.138;2022-10-10T14:25:38;6.78;;;3.17;;
74559;SDS011;63032;54.340;10.138;2022-10-10T14:28:06;4.53;;;3.22;;
74559;SDS011;63032;54.340;10.138;2022-10-10T14:30:42;5.18;;;3.95;;
74559;SDS011;63032;54.340;10.138;2022-10-10T14:33:11;6.47;;;3.80;;
74559;SDS011;63032;54.340;10.138;2022-10-10T14:35:38;3.58;;;3.08;;
74559;SDS011;63032;54.340;10.138;2022-10-10T14:38:05;10.82;;;3.80;;
74559;SDS011;63032;54.340;10.138;2022-10-10T14:40:31;5.35;;;2.97;;
74559;SDS011;63032;54.340;10.138;2022-10-10T14:42:58;6.90;;;3.17;;
74559;SDS011;63032;54.340;10.138;2022-10-10T14:45:24;5.25;;;3.00;;
74559;SDS011;63032;54.340;10.138;2022-10-10T14:47:50;4.85;;;3.10;;
74559;SDS011;63032;54.340;10.138;2022-10-10T14:50:19;5.38;;;3.30;;
74559;SDS011;63032;54.340;10.138;2022-10-10T14:52:47;5.90;;;3.55;;
74559;SDS011;63032;54.340;10.138;2022-10-10T14:55:13;8.60;;;4.03;;
74559;SDS011;63032;54.340;10.138;2022-10-10T14:57:39;6.93;;;3.35;;
74559;SDS011;63032;54.340;10.138;2022-10-10T15:00:05;4.38;;;3.45;;
74559;SDS011;63032;54.340;10.138;2022-10-10T15:02:38;7.72;;;2.63;;
74559;SDS011;63032;54.340;10.138;2022-10-10T15:05:03;7.53;;;3.55;;
74559;SDS011;63032;54.340;10.138;2022-10-10T15:07:29;4.68;;;2.97;;
74559;SDS011;63032;54.340;10.138;2022-10-10T15:09:55;4.38;;;3.03;;
74559;SDS011;63032;54.340;10.138;2022-10-10T15:12:20;8.75;;;3.60;;
74559;SDS011;63032;54.340;10.138;2022-10-10T15:14:46;6.05;;;3.00;;
74559;SDS011;63032;54.340;10.138;2022-10-10T15:17:12;6.85;;;3.58;;
74559;SDS011;63032;54.340;10.138;2022-10-10T15:19:37;5.93;;;3.63;;
74559;SDS011;63032;54.340;10.138;2022-10-10T15:22:03;3.75;;;2.63;;
74559;SDS011;63032;54.340;10.138;2022-10-10T15:24:28;8.02;;;4.13;;
74559;SDS011;63032;54.340;10.138;2022-10-10T15:26:54;6.97;;;3.70;;
74559;SDS011;63032;54.340;10.138;2022-10-10T15:29:20;6.50;;;3.60;;
74559;SDS011;63032;54.340;10.138;2022-10-10T15:31:46;7.20;;;2.92;;
74559;SDS011;63032;54.340;10.138;2022-10-10T15:34:11;5.43;;;3.85;;
74559;SDS011;63032;54.340;10.138;2022-10-10T15:36:38;8.52;;;3.35;;
74559;SDS011;63032;54.340;10.138;2022-10-10T15:39:05;6.20;;;3.25;;
74559;SDS011;63032;54.340;10.138;2022-10-10T15:41:30;3.92;;;2.97;;
74559;SDS011;63032;54.340;10.138;2022-10-10T15:43:56;4.88;;;2.70;;
74559;SDS011;63032;54.340;10.138;2022-10-10T15:46:22;6.55;;;2.95;;
74559;SDS011;63032;54.340;10.138;2022-10-10T15:48:50;11.55;;;3.10;;
74559;SDS011;63032;54.340;10.138;2022-10-10T15:51:17;7.35;;;3.08;;
74559;SDS011;63032;54.340;10.138;2022-10-10T15:53:42;5.43;;;3.10;;
74559;SDS011;63032;54.340;10.138;2022-10-10T15:56:10;7.30;;;2.88;;
74559;SDS011;63032;54.340;10.138;2022-10-10T15:58:39;4.18;;;3.33;;
74559;SDS011;63032;54.340;10.138;2022-10-10T16:01:13;3.67;;;2.72;;
74559;SDS011;63032;54.340;10.138;2022-10-10T16:03:43;5.88;;;3.20;;
74559;SDS011;63032;54.340;10.138;2022-10-10T16:06:10;8.18;;;3.15;;
74559;SDS011;63032;54.340;10.138;2022-10-10T16:08:36;4.28;;;2.50;;
74559;SDS011;63032;54.340;10.138;2022-10-10T16:11:06;6.57;;;3.40;;
74559;SDS011;63032;54.340;10.138;2022-10-10T16:13:34;4.93;;;3.00;;
74559;SDS011;63032;54.340;10.138;2022-10-10T16:16:00;5.32;;;2.90;;
74559;SDS011;63032;54.340;10.138;2022-10-10T16:18:28;3.97;;;2.53;;
74559;SDS011;63032;54.340;10.138;2022-10-10T16:20:54;8.02;;;2.88;;
74559;SDS011;63032;54.340;10.138;2022-10-10T16:23:21;4.40;;;2.70;;
74559;SDS011;63032;54.340;10.138;2022-10-10T16:25:47;5.82;;;3.45;;
74559;SDS011;63032;54.340;10.138;2022-10-10T16:28:12;8.52;;;3.10;;
74559;SDS011;63032;54.340;10.138;2022-10-10T16:30:38;6.85;;;2.83;;
74559;SDS011;63032;54.340;10.138;2022-10-10T16:33:04;5.18;;;3.10;;
74559;SDS011;63032;54.340;10.138;2022-10-10T16:35:29;4.75;;;2.65;;
74559;SDS011;63032;54.340;10.138;2022-10-10T16:37:59;5.00;;;2.83;;
74559;SDS011;63032;54.340;10.138;2022-10-10T16:40:24;3.65;;;2.70;;
74559;SDS011;63032;54.340;10.138;2022-10-10T16:42:52;11.88;;;2.95;;
74559;SDS011;63032;54.340;10.138;2022-10-10T16:45:18;6.70;;;2.90;;
74559;SDS011;63032;54.340;10.138;2022-10-10T16:47:44;4.93;;;3.00;;
74559;SDS011;63032;54.340;10.138;2022-10-10T16:50:09;4.60;;;2.80;;
74559;SDS011;63032;54.340;10.138;2022-10-10T16:52:35;6.63;;;2.60;;
74559;SDS011;63032;54.340;10.138;2022-10-10T16:55:03;4.88;;;3.28;;
74559;SDS011;63032;54.340;10.138;2022-10-10T16:57:30;5.28;;;2.70;;
74559;SDS011;63032;54.340;10.138;2022-10-10T16:59:57;4.82;;;3.05;;
74559;SDS011;63032;54.340;10.138;2022-10-10T17:02:23;4.97;;;2.63;;
74559;SDS011;63032;54.340;10.138;2022-10-10T17:04:49;3.72;;;2.78;;
74559;SDS011;63032;54.340;10.138;2022-10-10T17:07:16;4.65;;;2.75;;
74559;SDS011;63032;54.340;10.138;2022-10-10T17:09:43;5.47;;;2.80;;
74559;SDS011;63032;54.340;10.138;2022-10-10T17:12:10;5.30;;;2.75;;
74559;SDS011;63032;54.340;10.138;2022-10-10T17:14:35;8.13;;;2.58;;
74559;SDS011;63032;54.340;10.138;2022-10-10T17:17:01;6.45;;;2.97;;
74559;SDS011;63032;54.340;10.138;2022-10-10T17:19:27;5.18;;;2.50;;
74559;SDS011;63032;54.340;10.138;2022-10-10T17:21:53;5.93;;;3.25;;
74559;SDS011;63032;54.340;10.138;2022-10-10T17:24:19;5.13;;;2.83;;
74559;SDS011;63032;54.340;10.138;2022-10-10T17:26:47;6.32;;;2.60;;
74559;SDS011;63032;54.340;10.138;2022-10-10T17:29:13;4.25;;;2.30;;
74559;SDS011;63032;54.340;10.138;2022-10-10T17:31:38;3.80;;;3.00;;
74559;SDS011;63032;54.340;10.138;2022-10-10T17:34:04;4.18;;;2.72;;
74559;SDS011;63032;54.340;10.138;2022-10-10T17:36:30;10.75;;;3.60;;
74559;SDS011;63032;54.340;10.138;2022-10-10T17:38:56;3.17;;;2.40;;
74559;SDS011;63032;54.340;10.138;2022-10-10T17:41:25;5.47;;;2.38;;
74559;SDS011;63032;54.340;10.138;2022-10-10T17:43:51;3.63;;;2.33;;
74559;SDS011;63032;54.340;10.138;2022-10-10T17:46:21;3.72;;;2.30;;
74559;SDS011;63032;54.340;10.138;2022-10-10T17:48:49;5.20;;;2.72;;
74559;SDS011;63032;54.340;10.138;2022-10-10T17:51:15;3.60;;;2.75;;
74559;SDS011;63032;54.340;10.138;2022-10-10T17:53:47;4.45;;;2.10;;
74559;SDS011;63032;54.340;10.138;2022-10-10T17:56:17;6.18;;;2.15;;
74559;SDS011;63032;54.340;10.138;2022-10-10T17:58:44;4.70;;;2.53;;
74559;SDS011;63032;54.340;10.138;2022-10-10T18:01:12;3.90;;;2.30;;
74559;SDS011;63032;54.340;10.138;2022-10-10T18:03:39;3.80;;;2.00;;
74559;SDS011;63032;54.340;10.138;2022-10-10T18:06:15;4.05;;;2.13;;
74559;SDS011;63032;54.340;10.138;2022-10-10T18:08:42;3.33;;;2.00;;
74559;SDS011;63032;54.340;10.138;2022-10-10T18:11:11;5.43;;;1.90;;
74559;SDS011;63032;54.340;10.138;2022-10-10T18:13:37;3.78;;;2.13;;
74559;SDS011;63032;54.340;10.138;2022-10-10T18:16:16;3.72;;;1.83;;
74559;SDS011;63032;54.340;10.138;2022-10-10T18:18:44;3.85;;;1.60;;
74559;SDS011;63032;54.340;10.138;2022-10-10T18:21:11;3.75;;;2.20;;
74559;SDS011;63032;54.340;10.138;2022-10-10T18:23:37;2.83;;;1.92;;
74559;SDS011;63032;54.340;10.138;2022-10-10T18:26:21;3.35;;;1.60;;
74559;SDS011;63032;54.340;10.138;2022-10-10T18:28:49;2.75;;;1.52;;
74559;SDS011;63032;54.340;10.138;2022-10-10T18:31:20;3.35;;;1.92;;
74559;SDS011;63032;54.340;10.138;2022-10-10T18:33:48;3.55;;;1.77;;
74559;SDS011;63032;54.340;10.138;2022-10-10T18:36:15;3.20;;;1.83;;
74559;SDS011;63032;54.340;10.138;2022-10-10T18:38:42;3.65;;;1.70;;
74559;SDS011;63032;54.340;10.138;2022-10-10T18:41:10;4.90;;;2.13;;
74559;SDS011;63032;54.340;10.138;2022-10-10T18:43:40;6.13;;;2.03;;
74559;SDS011;63032;54.340;10.138;2022-10-10T18:46:07;3.75;;;1.80;;
74559;SDS011;63032;54.340;10.138;2022-10-10T18:48:35;4.20;;;1.48;;
74559;SDS011;63032;54.340;10.138;2022-10-10T18:51:06;3.58;;;1.80;;
74559;SDS011;63032;54.340;10.138;2022-10-10T18:53:38;3.92;;;1.75;;
74559;SDS011;63032;54.340;10.138;2022-10-10T18:56:06;3.38;;;1.50;;
74559;SDS011;63032;54.340;10.138;2022-10-10T18:58:34;3.90;;;1.73;;
74559;SDS011;63032;54.340;10.138;2022-10-10T19:01:05;3.28;;;1.48;;
74559;SDS011;63032;54.340;10.138;2022-10-10T19:03:32;3.95;;;1.50;;
74559;SDS011;63032;54.340;10.138;2022-10-10T19:05:59;4.78;;;1.75;;
74559;SDS011;63032;54.340;10.138;2022-10-10T19:08:26;3.25;;;1.50;;
74559;SDS011;63032;54.340;10.138;2022-10-10T19:10:52;4.95;;;2.00;;
74559;SDS011;63032;54.340;10.138;2022-10-10T19:13:21;3.60;;;1.70;;
74559;SDS011;63032;54.340;10.138;2022-10-10T19:15:47;2.50;;;1.60;;
74559;SDS011;63032;54.340;10.138;2022-10-10T19:18:15;7.28;;;1.85;;
74559;SDS011;63032;54.340;10.138;2022-10-10T19:20:42;5.57;;;2.13;;
74559;SDS011;63032;54.340;10.138;2022-10-10T19:23:07;2.90;;;1.48;;
74559;SDS011;63032;54.340;10.138;2022-10-10T19:25:37;3.58;;;1.63;;
74559;SDS011;63032;54.340;10.138;2022-10-10T19:28:04;6.35;;;2.03;;
74559;SDS011;63032;54.340;10.138;2022-10-10T19:30:30;1.70;;;1.58;;
74559;SDS011;63032;54.340;10.138;2022-10-10T19:32:57;3.10;;;1.45;;
74559;SDS011;63032;54.340;10.138;2022-10-10T19:35:23;4.57;;;2.05;;
74559;SDS011;63032;54.340;10.138;2022-10-10T19:37:49;6.15;;;1.83;;
74559;SDS011;63032;54.340;10.138;2022-10-10T19:40:14;5.55;;;1.58;;
74559;SDS011;63032;54.340;10.138;2022-10-10T19:42:40;5.18;;;1.85;;
74559;SDS011;63032;54.340;10.138;2022-10-10T19:45:06;2.85;;;1.50;;
74559;SDS011;63032;54.340;10.138;2022-10-10T19:47:32;3.63;;;1.77;;
74559;SDS011;63032;54.340;10.138;2022-10-10T19:49:58;6.38;;;1.73;;
74559;SDS011;63032;54.340;10.138;2022-10-10T19:52:24;4.97;;;1.40;;
74559;SDS011;63032;54.340;10.138;2022-10-10T19:54:51;4.72;;;1.73;;
74559;SDS011;63032;54.340;10.138;2022-10-10T19:57:17;3.13;;;1.50;;
74559;SDS011;63032;54.340;10.138;2022-10-10T19:59:43;4.97;;;1.63;;
74559;SDS011;63032;54.340;10.138;2022-10-10T20:02:09;4.90;;;1.60;;
74559;SDS011;63032;54.340;10.138;2022-10-10T20:04:35;2.60;;;1.50;;
74559;SDS011;63032;54.340;10.138;2022-10-10T20:07:01;4.03;;;1.77;;
74559;SDS011;63032;54.340;10.138;2022-10-10T20:09:26;4.43;;;1.55;;
74559;SDS011;63032;54.340;10.138;2022-10-10T20:11:53;5.05;;;1.63;;
74559;SDS011;63032;54.340;10.138;2022-10-10T20:14:20;4.47;;;1.92;;
74559;SDS011;63032;54.340;10.138;2022-10-10T20:16:45;3.60;;;1.95;;
74559;SDS011;63032;54.340;10.138;2022-10-10T20:19:11;2.75;;;1.38;;
74559;SDS011;63032;54.340;10.138;2022-10-10T20:21:37;3.80;;;1.27;;
74559;SDS011;63032;54.340;10.138;2022-10-10T20:24:05;4.40;;;1.88;;
74559;SDS011;63032;54.340;10.138;2022-10-10T20:26:33;3.33;;;1.30;;
74559;SDS011;63032;54.340;10.138;2022-10-10T20:29:00;2.47;;;1.40;;
74559;SDS011;63032;54.340;10.138;2022-10-10T20:31:27;2.67;;;1.58;;
74559;SDS011;63032;54.340;10.138;2022-10-10T20:33:54;4.38;;;1.52;;
74559;SDS011;63032;54.340;10.138;2022-10-10T20:36:25;4.70;;;1.55;;
74559;SDS011;63032;54.340;10.138;2022-10-10T20:38:59;6.25;;;1.40;;
74559;SDS011;63032;54.340;10.138;2022-10-10T20:41:28;3.13;;;1.30;;
74559;SDS011;63032;54.340;10.138;2022-10-10T20:43:57;1.63;;;1.30;;
74559;SDS011;63032;54.340;10.138;2022-10-10T20:46:24;3.20;;;1.60;;
74559;SDS011;63032;54.340;10.138;2022-10-10T20:48:55;3.15;;;1.60;;
74559;SDS011;63032;54.340;10.138;2022-10-10T20:51:22;2.85;;;1.30;;
74559;SDS011;63032;54.340;10.138;2022-10-10T20:53:59;1.77;;;1.15;;
74559;SDS011;63032;54.340;10.138;2022-10-10T20:56:27;2.17;;;1.20;;
74559;SDS011;63032;54.340;10.138;2022-10-10T20:58:53;3.17;;;1.38;;
74559;SDS011;63032;54.340;10.138;2022-10-10T21:01:20;2.25;;;1.50;;
74559;SDS011;63032;54.340;10.138;2022-10-10T21:03:48;4.75;;;1.38;;
74559;SDS011;63032;54.340;10.138;2022-10-10T21:06:15;2.60;;;1.20;;
74559;SDS011;63032;54.340;10.138;2022-10-10T21:08:45;3.50;;;1.48;;
74559;SDS011;63032;54.340;10.138;2022-10-10T21:11:12;3.63;;;1.60;;
74559;SDS011;63032;54.340;10.138;2022-10-10T21:13:40;2.20;;;1.50;;
74559;SDS011;63032;54.340;10.138;2022-10-10T21:16:11;5.25;;;1.92;;
74559;SDS011;63032;54.340;10.138;2022-10-10T21:18:39;2.38;;;1.48;;
74559;SDS011;63032;54.340;10.138;2022-10-10T21:21:06;2.05;;;1.10;;
74559;SDS011;63032;54.340;10.138;2022-10-10T21:23:36;3.53;;;1.38;;
74559;SDS011;63032;54.340;10.138;2022-10-10T21:26:04;2.78;;;1.48;;
74559;SDS011;63032;54.340;10.138;2022-10-10T21:28:31;2.95;;;1.45;;
74559;SDS011;63032;54.340;10.138;2022-10-10T21:30:57;3.47;;;1.25;;
74559;SDS011;63032;54.340;10.138;2022-10-10T21:33:23;1.73;;;1.20;;
74559;SDS011;63032;54.340;10.138;2022-10-10T21:35:49;1.73;;;1.00;;
74559;SDS011;63032;54.340;10.138;2022-10-10T21:38:15;1.38;;;1.15;;
74559;SDS011;63032;54.340;10.138;2022-10-10T21:40:41;1.77;;;1.15;;
74559;SDS011;63032;54.340;10.138;2022-10-10T21:43:07;2.22;;;1.27;;
74559;SDS011;63032;54.340;10.138;2022-10-10T21:45:34;2.28;;;1.40;;
74559;SDS011;63032;54.340;10.138;2022-10-10T21:48:01;2.40;;;1.38;;
74559;SDS011;63032;54.340;10.138;2022-10-10T21:50:30;1.92;;;1.25;;
74559;SDS011;63032;54.340;10.138;2022-10-10T21:52:57;4.15;;;1.52;;
74559;SDS011;63032;54.340;10.138;2022-10-10T21:55:22;1.98;;;1.15;;
74559;SDS011;63032;54.340;10.138;2022-10-10T21:57:48;1.80;;;1.45;;
74559;SDS011;63032;54.340;10.138;2022-10-10T22:00:14;1.67;;;1.30;;
74559;SDS011;63032;54.340;10.138;2022-10-10T22:02:41;3.00;;;1.10;;
74559;SDS011;63032;54.340;10.138;2022-10-10T22:05:07;1.52;;;1.15;;
74559;SDS011;63032;54.340;10.138;2022-10-10T22:07:37;2.63;;;1.48;;
74559;SDS011;63032;54.340;10.138;2022-10-10T22:10:07;2.30;;;1.30;;
74559;SDS011;63032;54.340;10.138;2022-10-10T22:12:38;2.13;;;1.20;;
74559;SDS011;63032;54.340;10.138;2022-10-10T22:15:08;2.22;;;1.27;;
74559;SDS011;63032;54.340;10.138;2022-10-10T22:17:35;2.47;;;1.40;;
74559;SDS011;63032;54.340;10.138;2022-10-10T22:20:01;1.42;;;1.10;;
74559;SDS011;63032;54.340;10.138;2022-10-10T22:22:28;2.70;;;1.35;;
74559;SDS011;63032;54.340;10.138;2022-10-10T22:24:53;2.20;;;1.20;;